sensor_id;sensor_type;location;lat;lon;timestamp;P1;durP1;ratioP1;P2;durP2;ratioP2
50355;SDS011;36264;51.296;-0.602;2023-01-06T00:00:07;2.03;;;0.80;;
50355;SDS011;36264;51.296;-0.602;2023-01-06T00:02:33;2.55;;;0.98;;
50355;SDS011;36264;51.296;-0.602;2023-01-06T00:04:59;2.42;;;1.08;;
50355;SDS011;36264;51.296;-0.602;2023-01-06T00:07:24;3.85;;;0.93;;
50355;SDS011;36264;51.296;-0.602;2023-01-06T00:09:49;5.45;;;1.10;;
50355;SDS011;36264;51.296;-0.602;2023-01-06T00:12:15;3.60;;;1.15;;
50355;SDS011;36264;51.296;-0.602;2023-01-06T00:14:40;3.40;;;0.98;;
50355;SDS011;36264;51.296;-0.602;2023-01-06T00:17:07;3.53;;;1.02;;
50355;SDS011;36264;51.296;-0.602;2023-01-06T00:19:32;3.78;;;1.30;;
50355;SDS011;36264;51.296;-0.602;2023-01-06T00:21:58;2.85;;;1.02;;
50355;SDS011;36264;51.296;-0.602;2023-01-06T00:24:23;3.20;;;1.00;;
50355;SDS011;36264;51.296;-0.602;2023-01-06T00:26:48;3.50;;;1.17;;
50355;SDS011;36264;51.296;-0.602;2023-01-06T00:29:14;3.30;;;1.02;;
50355;SDS011;36264;51.296;-0.602;2023-01-06T00:31:39;4.03;;;1.23;;
50355;SDS011;36264;51.296;-0.602;2023-01-06T00:34:04;2.30;;;0.95;;
50355;SDS011;36264;51.296;-0.602;2023-01-06T00:36:30;1.63;;;0.70;;
50355;SDS011;36264;51.296;-0.602;2023-01-06T00:38:55;2.75;;;1.10;;
50355;SDS011;36264;51.296;-0.602;2023-01-06T00:41:21;2.83;;;0.85;;
50355;SDS011;36264;51.296;-0.602;2023-01-06T00:44:05;2.35;;;0.93;;
50355;SDS011;36264;51.296;-0.602;2023-01-06T00:46:31;2.55;;;0.90;;
50355;SDS011;36264;51.296;-0.602;2023-01-06T00:48:58;2.70;;;0.93;;
50355;SDS011;36264;51.296;-0.602;2023-01-06T00:51:25;3.33;;;1.48;;
50355;SDS011;36264;51.296;-0.602;2023-01-06T00:53:51;3.78;;;1.10;;
50355;SDS011;36264;51.296;-0.602;2023-01-06T00:56:16;3.53;;;1.23;;
50355;SDS011;36264;51.296;-0.602;2023-01-06T00:58:42;5.75;;;1.65;;
50355;SDS011;36264;51.296;-0.602;2023-01-06T01:01:07;4.10;;;1.40;;
50355;SDS011;36264;51.296;-0.602;2023-01-06T01:03:34;6.28;;;1.67;;
50355;SDS011;36264;51.296;-0.602;2023-01-06T01:06:01;5.07;;;1.45;;
50355;SDS011;36264;51.296;-0.602;2023-01-06T01:08:28;4.38;;;1.27;;
50355;SDS011;36264;51.296;-0.602;2023-01-06T01:10:54;7.75;;;1.48;;
50355;SDS011;36264;51.296;-0.602;2023-01-06T01:13:20;4.20;;;1.30;;
50355;SDS011;36264;51.296;-0.602;2023-01-06T01:15:45;5.28;;;1.40;;
50355;SDS011;36264;51.296;-0.602;2023-01-06T01:18:10;6.72;;;1.52;;
50355;SDS011;36264;51.296;-0.602;2023-01-06T01:20:36;5.10;;;1.35;;
50355;SDS011;36264;51.296;-0.602;2023-01-06T01:23:01;8.15;;;1.63;;
50355;SDS011;36264;51.296;-0.602;2023-01-06T01:25:26;4.75;;;1.80;;
50355;SDS011;36264;51.296;-0.602;2023-01-06T01:27:52;4.80;;;1.30;;
50355;SDS011;36264;51.296;-0.602;2023-01-06T01:30:17;14.05;;;1.75;;
50355;SDS011;36264;51.296;-0.602;2023-01-06T01:32:45;3.97;;;0.90;;
50355;SDS011;36264;51.296;-0.602;2023-01-06T01:35:11;3.97;;;1.20;;
50355;SDS011;36264;51.296;-0.602;2023-01-06T01:37:37;3.80;;;1.00;;
50355;SDS011;36264;51.296;-0.602;2023-01-06T01:40:02;3.75;;;0.95;;
50355;SDS011;36264;51.296;-0.602;2023-01-06T01:42:28;3.60;;;1.00;;
50355;SDS011;36264;51.296;-0.602;2023-01-06T01:50:12;2.15;;;0.63;;
50355;SDS011;36264;51.296;-0.602;2023-01-06T01:52:41;3.47;;;0.98;;
50355;SDS011;36264;51.296;-0.602;2023-01-06T01:55:09;2.38;;;1.00;;
50355;SDS011;36264;51.296;-0.602;2023-01-06T01:57:38;0.45;;;0.45;;
50355;SDS011;36264;51.296;-0.602;2023-01-06T02:00:07;0.52;;;0.47;;
50355;SDS011;36264;51.296;-0.602;2023-01-06T02:02:33;0.80;;;0.68;;
50355;SDS011;36264;51.296;-0.602;2023-01-06T02:04:59;1.70;;;0.70;;
50355;SDS011;36264;51.296;-0.602;2023-01-06T02:07:26;1.33;;;0.70;;
50355;SDS011;36264;51.296;-0.602;2023-01-06T02:12:35;0.77;;;0.50;;
50355;SDS011;36264;51.296;-0.602;2023-01-06T02:15:01;2.22;;;0.68;;
50355;SDS011;36264;51.296;-0.602;2023-01-06T02:32:11;2.08;;;0.65;;
50355;SDS011;36264;51.296;-0.602;2023-01-06T02:46:06;1.42;;;0.70;;
50355;SDS011;36264;51.296;-0.602;2023-01-06T02:51:17;2.25;;;0.60;;
50355;SDS011;36264;51.296;-0.602;2023-01-06T02:54:16;0.90;;;0.50;;
50355;SDS011;36264;51.296;-0.602;2023-01-06T02:56:44;1.08;;;0.88;;
50355;SDS011;36264;51.296;-0.602;2023-01-06T02:59:36;1.73;;;0.82;;
50355;SDS011;36264;51.296;-0.602;2023-01-06T03:02:02;1.65;;;0.70;;
50355;SDS011;36264;51.296;-0.602;2023-01-06T03:04:30;2.22;;;0.63;;
50355;SDS011;36264;51.296;-0.602;2023-01-06T03:07:01;2.42;;;0.85;;
50355;SDS011;36264;51.296;-0.602;2023-01-06T03:09:33;2.42;;;0.77;;
50355;SDS011;36264;51.296;-0.602;2023-01-06T03:12:02;0.90;;;0.45;;
50355;SDS011;36264;51.296;-0.602;2023-01-06T03:14:37;1.75;;;0.70;;
50355;SDS011;36264;51.296;-0.602;2023-01-06T03:17:05;2.17;;;0.70;;
50355;SDS011;36264;51.296;-0.602;2023-01-06T03:19:31;2.03;;;0.65;;
50355;SDS011;36264;51.296;-0.602;2023-01-06T03:21:57;0.52;;;0.50;;
50355;SDS011;36264;51.296;-0.602;2023-01-06T03:24:24;2.38;;;0.82;;
50355;SDS011;36264;51.296;-0.602;2023-01-06T03:26:50;3.38;;;0.82;;
50355;SDS011;36264;51.296;-0.602;2023-01-06T03:29:17;2.50;;;0.80;;
50355;SDS011;36264;51.296;-0.602;2023-01-06T03:34:38;2.75;;;0.60;;
50355;SDS011;36264;51.296;-0.602;2023-01-06T03:42:41;0.93;;;0.52;;
50355;SDS011;36264;51.296;-0.602;2023-01-06T03:45:43;1.00;;;0.55;;
50355;SDS011;36264;51.296;-0.602;2023-01-06T03:56:43;1.70;;;0.70;;
50355;SDS011;36264;51.296;-0.602;2023-01-06T03:59:14;0.50;;;0.50;;
50355;SDS011;36264;51.296;-0.602;2023-01-06T04:01:43;1.10;;;0.57;;
50355;SDS011;36264;51.296;-0.602;2023-01-06T04:04:10;1.20;;;0.50;;
50355;SDS011;36264;51.296;-0.602;2023-01-06T04:06:36;0.98;;;0.47;;
50355;SDS011;36264;51.296;-0.602;2023-01-06T04:09:01;1.48;;;0.65;;
50355;SDS011;36264;51.296;-0.602;2023-01-06T04:11:27;1.45;;;0.60;;
50355;SDS011;36264;51.296;-0.602;2023-01-06T04:14:10;2.08;;;0.80;;
50355;SDS011;36264;51.296;-0.602;2023-01-06T04:16:36;1.73;;;0.82;;
50355;SDS011;36264;51.296;-0.602;2023-01-06T04:19:01;0.77;;;0.60;;
50355;SDS011;36264;51.296;-0.602;2023-01-06T04:21:27;0.88;;;0.52;;
50355;SDS011;36264;51.296;-0.602;2023-01-06T04:23:53;2.72;;;1.00;;
50355;SDS011;36264;51.296;-0.602;2023-01-06T04:26:18;1.75;;;0.63;;
50355;SDS011;36264;51.296;-0.602;2023-01-06T04:28:43;4.05;;;1.27;;
50355;SDS011;36264;51.296;-0.602;2023-01-06T04:31:09;0.77;;;0.57;;
50355;SDS011;36264;51.296;-0.602;2023-01-06T04:33:35;1.65;;;0.70;;
50355;SDS011;36264;51.296;-0.602;2023-01-06T04:36:00;1.45;;;0.75;;
50355;SDS011;36264;51.296;-0.602;2023-01-06T04:38:26;2.15;;;1.13;;
50355;SDS011;36264;51.296;-0.602;2023-01-06T04:40:51;0.90;;;0.47;;
50355;SDS011;36264;51.296;-0.602;2023-01-06T04:43:17;1.67;;;0.60;;
50355;SDS011;36264;51.296;-0.602;2023-01-06T04:45:43;2.17;;;0.80;;
50355;SDS011;36264;51.296;-0.602;2023-01-06T04:48:09;0.82;;;0.52;;
50355;SDS011;36264;51.296;-0.602;2023-01-06T04:50:35;1.23;;;0.70;;
50355;SDS011;36264;51.296;-0.602;2023-01-06T04:53:01;1.02;;;0.70;;
50355;SDS011;36264;51.296;-0.602;2023-01-06T04:55:27;0.65;;;0.40;;
50355;SDS011;36264;51.296;-0.602;2023-01-06T04:57:53;1.38;;;0.80;;
50355;SDS011;36264;51.296;-0.602;2023-01-06T05:00:18;0.55;;;0.40;;
50355;SDS011;36264;51.296;-0.602;2023-01-06T05:02:43;1.10;;;0.57;;
50355;SDS011;36264;51.296;-0.602;2023-01-06T05:05:10;1.35;;;0.75;;
50355;SDS011;36264;51.296;-0.602;2023-01-06T05:07:36;1.98;;;0.55;;
50355;SDS011;36264;51.296;-0.602;2023-01-06T05:10:02;2.47;;;0.82;;
50355;SDS011;36264;51.296;-0.602;2023-01-06T05:12:29;3.13;;;0.70;;
50355;SDS011;36264;51.296;-0.602;2023-01-06T05:14:56;2.55;;;0.60;;
50355;SDS011;36264;51.296;-0.602;2023-01-06T05:17:21;2.85;;;0.80;;
50355;SDS011;36264;51.296;-0.602;2023-01-06T05:19:46;2.30;;;0.88;;
50355;SDS011;36264;51.296;-0.602;2023-01-06T05:22:12;1.38;;;0.63;;
50355;SDS011;36264;51.296;-0.602;2023-01-06T05:24:37;1.35;;;0.90;;
50355;SDS011;36264;51.296;-0.602;2023-01-06T05:27:03;0.45;;;0.45;;
50355;SDS011;36264;51.296;-0.602;2023-01-06T05:29:29;1.63;;;0.80;;
50355;SDS011;36264;51.296;-0.602;2023-01-06T05:31:54;1.80;;;0.95;;
50355;SDS011;36264;51.296;-0.602;2023-01-06T05:34:20;2.80;;;0.90;;
50355;SDS011;36264;51.296;-0.602;2023-01-06T05:36:45;2.47;;;0.85;;
50355;SDS011;36264;51.296;-0.602;2023-01-06T05:39:10;2.50;;;0.90;;
50355;SDS011;36264;51.296;-0.602;2023-01-06T05:41:36;2.60;;;1.00;;
50355;SDS011;36264;51.296;-0.602;2023-01-06T05:44:01;1.85;;;0.93;;
50355;SDS011;36264;51.296;-0.602;2023-01-06T05:46:27;1.17;;;0.77;;
50355;SDS011;36264;51.296;-0.602;2023-01-06T05:48:52;1.10;;;0.60;;
50355;SDS011;36264;51.296;-0.602;2023-01-06T05:51:17;1.17;;;0.63;;
50355;SDS011;36264;51.296;-0.602;2023-01-06T05:53:43;0.93;;;0.60;;
50355;SDS011;36264;51.296;-0.602;2023-01-06T05:56:11;0.82;;;0.40;;
50355;SDS011;36264;51.296;-0.602;2023-01-06T05:58:39;0.47;;;0.40;;
50355;SDS011;36264;51.296;-0.602;2023-01-06T06:01:05;0.85;;;0.52;;
50355;SDS011;36264;51.296;-0.602;2023-01-06T06:03:31;1.52;;;0.90;;
50355;SDS011;36264;51.296;-0.602;2023-01-06T06:06:01;3.35;;;0.70;;
50355;SDS011;36264;51.296;-0.602;2023-01-06T06:08:27;0.70;;;0.40;;
50355;SDS011;36264;51.296;-0.602;2023-01-06T06:10:53;1.65;;;0.50;;
50355;SDS011;36264;51.296;-0.602;2023-01-06T06:13:18;1.33;;;0.50;;
50355;SDS011;36264;51.296;-0.602;2023-01-06T06:15:43;0.75;;;0.65;;
50355;SDS011;36264;51.296;-0.602;2023-01-06T06:18:09;1.38;;;0.70;;
50355;SDS011;36264;51.296;-0.602;2023-01-06T06:20:34;4.75;;;0.80;;
50355;SDS011;36264;51.296;-0.602;2023-01-06T06:22:59;1.67;;;0.80;;
50355;SDS011;36264;51.296;-0.602;2023-01-06T06:25:25;1.23;;;0.70;;
50355;SDS011;36264;51.296;-0.602;2023-01-06T06:27:50;1.27;;;0.70;;
50355;SDS011;36264;51.296;-0.602;2023-01-06T06:30:16;1.17;;;0.73;;
50355;SDS011;36264;51.296;-0.602;2023-01-06T06:32:41;2.38;;;0.80;;
50355;SDS011;36264;51.296;-0.602;2023-01-06T06:35:07;2.38;;;1.08;;
50355;SDS011;36264;51.296;-0.602;2023-01-06T06:37:32;2.33;;;1.20;;
50355;SDS011;36264;51.296;-0.602;2023-01-06T06:39:58;1.63;;;1.02;;
50355;SDS011;36264;51.296;-0.602;2023-01-06T06:42:23;3.70;;;1.20;;
50355;SDS011;36264;51.296;-0.602;2023-01-06T06:44:48;1.40;;;0.80;;
50355;SDS011;36264;51.296;-0.602;2023-01-06T06:47:14;2.28;;;1.25;;
50355;SDS011;36264;51.296;-0.602;2023-01-06T06:49:39;1.23;;;1.08;;
50355;SDS011;36264;51.296;-0.602;2023-01-06T06:52:05;2.08;;;1.05;;
50355;SDS011;36264;51.296;-0.602;2023-01-06T06:54:30;2.47;;;1.20;;
50355;SDS011;36264;51.296;-0.602;2023-01-06T06:56:55;2.00;;;1.10;;
50355;SDS011;36264;51.296;-0.602;2023-01-06T06:59:21;1.95;;;1.00;;
50355;SDS011;36264;51.296;-0.602;2023-01-06T07:01:46;6.35;;;1.10;;
50355;SDS011;36264;51.296;-0.602;2023-01-06T07:04:12;2.55;;;1.13;;
50355;SDS011;36264;51.296;-0.602;2023-01-06T07:06:37;2.05;;;1.05;;
50355;SDS011;36264;51.296;-0.602;2023-01-06T07:09:02;1.00;;;0.88;;
50355;SDS011;36264;51.296;-0.602;2023-01-06T07:11:28;1.45;;;0.80;;
50355;SDS011;36264;51.296;-0.602;2023-01-06T07:13:53;2.00;;;0.90;;
50355;SDS011;36264;51.296;-0.602;2023-01-06T07:16:19;1.35;;;0.70;;
50355;SDS011;36264;51.296;-0.602;2023-01-06T07:18:47;1.10;;;0.90;;
50355;SDS011;36264;51.296;-0.602;2023-01-06T07:21:12;1.77;;;0.88;;
50355;SDS011;36264;51.296;-0.602;2023-01-06T07:23:38;1.15;;;0.80;;
50355;SDS011;36264;51.296;-0.602;2023-01-06T07:26:03;2.67;;;1.08;;
50355;SDS011;36264;51.296;-0.602;2023-01-06T07:28:29;1.40;;;0.73;;
50355;SDS011;36264;51.296;-0.602;2023-01-06T07:30:56;1.35;;;0.80;;
50355;SDS011;36264;51.296;-0.602;2023-01-06T07:33:21;1.73;;;0.90;;
50355;SDS011;36264;51.296;-0.602;2023-01-06T07:35:51;1.60;;;0.73;;
50355;SDS011;36264;51.296;-0.602;2023-01-06T07:38:17;3.95;;;1.05;;
50355;SDS011;36264;51.296;-0.602;2023-01-06T07:40:42;1.73;;;0.93;;
50355;SDS011;36264;51.296;-0.602;2023-01-06T07:43:09;1.05;;;0.60;;
50355;SDS011;36264;51.296;-0.602;2023-01-06T07:45:35;1.10;;;0.65;;
50355;SDS011;36264;51.296;-0.602;2023-01-06T07:48:01;1.73;;;0.60;;
50355;SDS011;36264;51.296;-0.602;2023-01-06T07:50:27;1.05;;;0.80;;
50355;SDS011;36264;51.296;-0.602;2023-01-06T07:52:57;2.95;;;1.05;;
50355;SDS011;36264;51.296;-0.602;2023-01-06T07:55:24;0.60;;;0.55;;
50355;SDS011;36264;51.296;-0.602;2023-01-06T07:57:50;2.95;;;0.82;;
50355;SDS011;36264;51.296;-0.602;2023-01-06T08:00:15;1.02;;;0.60;;
50355;SDS011;36264;51.296;-0.602;2023-01-06T08:02:41;0.82;;;0.60;;
50355;SDS011;36264;51.296;-0.602;2023-01-06T08:05:06;1.50;;;0.80;;
50355;SDS011;36264;51.296;-0.602;2023-01-06T08:07:32;2.55;;;0.90;;
50355;SDS011;36264;51.296;-0.602;2023-01-06T08:09:57;1.70;;;0.55;;
50355;SDS011;36264;51.296;-0.602;2023-01-06T08:12:22;2.30;;;0.77;;
50355;SDS011;36264;51.296;-0.602;2023-01-06T08:14:48;1.25;;;0.63;;
50355;SDS011;36264;51.296;-0.602;2023-01-06T08:17:13;1.40;;;0.65;;
50355;SDS011;36264;51.296;-0.602;2023-01-06T08:19:38;0.52;;;0.50;;
50355;SDS011;36264;51.296;-0.602;2023-01-06T08:22:04;1.45;;;0.73;;
50355;SDS011;36264;51.296;-0.602;2023-01-06T08:24:30;0.65;;;0.63;;
50355;SDS011;36264;51.296;-0.602;2023-01-06T08:26:56;1.52;;;0.80;;
50355;SDS011;36264;51.296;-0.602;2023-01-06T08:29:22;1.52;;;0.80;;
50355;SDS011;36264;51.296;-0.602;2023-01-06T08:31:48;2.45;;;0.82;;
50355;SDS011;36264;51.296;-0.602;2023-01-06T08:34:14;0.90;;;0.57;;
50355;SDS011;36264;51.296;-0.602;2023-01-06T08:36:39;1.50;;;0.90;;
50355;SDS011;36264;51.296;-0.602;2023-01-06T08:39:07;2.80;;;0.90;;
50355;SDS011;36264;51.296;-0.602;2023-01-06T08:41:32;1.85;;;0.73;;
50355;SDS011;36264;51.296;-0.602;2023-01-06T08:43:58;1.58;;;0.95;;
50355;SDS011;36264;51.296;-0.602;2023-01-06T08:46:23;1.75;;;0.75;;
50355;SDS011;36264;51.296;-0.602;2023-01-06T08:48:50;3.50;;;1.23;;
50355;SDS011;36264;51.296;-0.602;2023-01-06T08:51:16;1.52;;;1.08;;
50355;SDS011;36264;51.296;-0.602;2023-01-06T08:53:44;2.38;;;1.40;;
50355;SDS011;36264;51.296;-0.602;2023-01-06T08:56:25;4.25;;;2.10;;
50355;SDS011;36264;51.296;-0.602;2023-01-06T09:01:26;4.90;;;2.60;;
50355;SDS011;36264;51.296;-0.602;2023-01-06T09:03:53;7.72;;;3.80;;
50355;SDS011;36264;51.296;-0.602;2023-01-06T09:06:19;9.73;;;5.43;;
50355;SDS011;36264;51.296;-0.602;2023-01-06T09:08:45;6.03;;;3.78;;
50355;SDS011;36264;51.296;-0.602;2023-01-06T09:11:12;10.15;;;5.93;;
50355;SDS011;36264;51.296;-0.602;2023-01-06T09:13:38;10.48;;;6.07;;
50355;SDS011;36264;51.296;-0.602;2023-01-06T09:16:07;10.18;;;5.38;;
50355;SDS011;36264;51.296;-0.602;2023-01-06T09:18:33;10.50;;;6.22;;
50355;SDS011;36264;51.296;-0.602;2023-01-06T09:20:59;8.13;;;5.13;;
50355;SDS011;36264;51.296;-0.602;2023-01-06T09:23:25;8.82;;;5.65;;
50355;SDS011;36264;51.296;-0.602;2023-01-06T09:25:51;9.27;;;5.75;;
50355;SDS011;36264;51.296;-0.602;2023-01-06T09:28:16;8.68;;;5.18;;
50355;SDS011;36264;51.296;-0.602;2023-01-06T09:30:42;8.35;;;4.85;;
50355;SDS011;36264;51.296;-0.602;2023-01-06T09:33:10;8.15;;;4.15;;
50355;SDS011;36264;51.296;-0.602;2023-01-06T09:35:35;6.72;;;3.75;;
50355;SDS011;36264;51.296;-0.602;2023-01-06T09:38:01;4.70;;;3.00;;
50355;SDS011;36264;51.296;-0.602;2023-01-06T09:40:51;5.93;;;3.33;;
50355;SDS011;36264;51.296;-0.602;2023-01-06T09:46:04;4.63;;;2.35;;
50355;SDS011;36264;51.296;-0.602;2023-01-06T09:48:34;4.40;;;1.90;;
50355;SDS011;36264;51.296;-0.602;2023-01-06T09:51:05;3.85;;;1.98;;
50355;SDS011;36264;51.296;-0.602;2023-01-06T09:56:06;6.53;;;2.15;;
50355;SDS011;36264;51.296;-0.602;2023-01-06T09:58:47;4.15;;;1.98;;
50355;SDS011;36264;51.296;-0.602;2023-01-06T10:01:18;3.50;;;1.83;;
50355;SDS011;36264;51.296;-0.602;2023-01-06T10:03:51;3.85;;;1.85;;
50355;SDS011;36264;51.296;-0.602;2023-01-06T10:09:14;4.63;;;1.83;;
50355;SDS011;36264;51.296;-0.602;2023-01-06T10:20:41;3.78;;;1.30;;
50355;SDS011;36264;51.296;-0.602;2023-01-06T10:25:49;6.47;;;1.40;;
50355;SDS011;36264;51.296;-0.602;2023-01-06T10:28:22;4.53;;;1.17;;
50355;SDS011;36264;51.296;-0.602;2023-01-06T10:30:54;7.80;;;1.35;;
50355;SDS011;36264;51.296;-0.602;2023-01-06T10:33:24;2.58;;;0.93;;
50355;SDS011;36264;51.296;-0.602;2023-01-06T10:35:51;4.55;;;1.60;;
50355;SDS011;36264;51.296;-0.602;2023-01-06T10:38:23;4.07;;;1.50;;
50355;SDS011;36264;51.296;-0.602;2023-01-06T10:43:55;4.35;;;1.30;;
50355;SDS011;36264;51.296;-0.602;2023-01-06T10:46:21;4.90;;;1.60;;
50355;SDS011;36264;51.296;-0.602;2023-01-06T10:48:49;3.30;;;1.40;;
50355;SDS011;36264;51.296;-0.602;2023-01-06T10:51:32;5.35;;;1.45;;
50355;SDS011;36264;51.296;-0.602;2023-01-06T10:54:02;5.35;;;1.30;;
50355;SDS011;36264;51.296;-0.602;2023-01-06T10:56:32;6.35;;;1.30;;
50355;SDS011;36264;51.296;-0.602;2023-01-06T10:59:02;5.35;;;1.60;;
50355;SDS011;36264;51.296;-0.602;2023-01-06T11:01:31;5.57;;;1.45;;
50355;SDS011;36264;51.296;-0.602;2023-01-06T11:04:07;4.75;;;1.23;;
50355;SDS011;36264;51.296;-0.602;2023-01-06T11:06:36;4.10;;;1.25;;
50355;SDS011;36264;51.296;-0.602;2023-01-06T11:09:08;2.83;;;0.98;;
50355;SDS011;36264;51.296;-0.602;2023-01-06T11:12:10;2.95;;;0.90;;
50355;SDS011;36264;51.296;-0.602;2023-01-06T11:14:40;4.53;;;1.50;;
50355;SDS011;36264;51.296;-0.602;2023-01-06T11:17:07;6.97;;;1.50;;
50355;SDS011;36264;51.296;-0.602;2023-01-06T11:19:40;5.38;;;1.58;;
50355;SDS011;36264;51.296;-0.602;2023-01-06T11:22:29;6.47;;;1.65;;
50355;SDS011;36264;51.296;-0.602;2023-01-06T11:25:01;3.80;;;1.30;;
50355;SDS011;36264;51.296;-0.602;2023-01-06T11:28:31;4.47;;;1.50;;
50355;SDS011;36264;51.296;-0.602;2023-01-06T11:30:38;6.68;;;1.63;;
50355;SDS011;36264;51.296;-0.602;2023-01-06T11:33:15;4.07;;;1.80;;
50355;SDS011;36264;51.296;-0.602;2023-01-06T11:35:43;3.97;;;1.50;;
50355;SDS011;36264;51.296;-0.602;2023-01-06T11:38:12;8.90;;;1.90;;
50355;SDS011;36264;51.296;-0.602;2023-01-06T11:40:41;10.18;;;3.35;;
50355;SDS011;36264;51.296;-0.602;2023-01-06T11:43:08;5.45;;;2.42;;
50355;SDS011;36264;51.296;-0.602;2023-01-06T11:45:38;6.45;;;1.90;;
50355;SDS011;36264;51.296;-0.602;2023-01-06T11:48:16;6.40;;;2.50;;
50355;SDS011;36264;51.296;-0.602;2023-01-06T11:51:05;8.20;;;2.30;;
50355;SDS011;36264;51.296;-0.602;2023-01-06T11:53:33;6.68;;;1.77;;
50355;SDS011;36264;51.296;-0.602;2023-01-06T11:58:52;5.50;;;1.75;;
50355;SDS011;36264;51.296;-0.602;2023-01-06T12:01:42;4.28;;;1.73;;
50355;SDS011;36264;51.296;-0.602;2023-01-06T12:04:21;8.50;;;1.60;;
50355;SDS011;36264;51.296;-0.602;2023-01-06T12:06:55;2.47;;;1.30;;
50355;SDS011;36264;51.296;-0.602;2023-01-06T12:09:31;4.85;;;1.35;;
50355;SDS011;36264;51.296;-0.602;2023-01-06T12:12:03;4.22;;;1.50;;
50355;SDS011;36264;51.296;-0.602;2023-01-06T12:14:35;4.65;;;1.42;;
50355;SDS011;36264;51.296;-0.602;2023-01-06T12:22:51;3.35;;;1.40;;
50355;SDS011;36264;51.296;-0.602;2023-01-06T12:25:21;5.40;;;1.40;;
50355;SDS011;36264;51.296;-0.602;2023-01-06T12:27:53;5.57;;;1.55;;
50355;SDS011;36264;51.296;-0.602;2023-01-06T12:30:33;5.18;;;1.23;;
50355;SDS011;36264;51.296;-0.602;2023-01-06T12:33:11;4.03;;;1.50;;
50355;SDS011;36264;51.296;-0.602;2023-01-06T12:35:41;4.57;;;1.75;;
50355;SDS011;36264;51.296;-0.602;2023-01-06T12:40:59;5.13;;;1.40;;
50355;SDS011;36264;51.296;-0.602;2023-01-06T12:43:29;4.70;;;2.10;;
50355;SDS011;36264;51.296;-0.602;2023-01-06T12:46:06;5.80;;;1.75;;
50355;SDS011;36264;51.296;-0.602;2023-01-06T12:53:58;7.03;;;1.40;;
50355;SDS011;36264;51.296;-0.602;2023-01-06T13:12:57;3.42;;;1.23;;
50355;SDS011;36264;51.296;-0.602;2023-01-06T13:15:39;6.85;;;1.42;;
50355;SDS011;36264;51.296;-0.602;2023-01-06T13:18:32;2.67;;;1.10;;
50355;SDS011;36264;51.296;-0.602;2023-01-06T13:23:51;4.00;;;1.40;;
50355;SDS011;36264;51.296;-0.602;2023-01-06T13:40:35;5.60;;;1.45;;
50355;SDS011;36264;51.296;-0.602;2023-01-06T13:45:42;4.22;;;1.55;;
50355;SDS011;36264;51.296;-0.602;2023-01-06T13:48:14;2.67;;;0.90;;
50355;SDS011;36264;51.296;-0.602;2023-01-06T13:50:43;4.65;;;1.20;;
50355;SDS011;36264;51.296;-0.602;2023-01-06T13:53:12;5.38;;;1.50;;
50355;SDS011;36264;51.296;-0.602;2023-01-06T13:55:41;5.63;;;1.70;;
50355;SDS011;36264;51.296;-0.602;2023-01-06T14:03:33;4.03;;;1.17;;
50355;SDS011;36264;51.296;-0.602;2023-01-06T14:06:00;3.80;;;1.30;;
50355;SDS011;36264;51.296;-0.602;2023-01-06T14:08:28;5.13;;;1.50;;
50355;SDS011;36264;51.296;-0.602;2023-01-06T14:10:57;3.58;;;1.30;;
50355;SDS011;36264;51.296;-0.602;2023-01-06T14:13:28;2.87;;;1.30;;
50355;SDS011;36264;51.296;-0.602;2023-01-06T14:16:11;4.65;;;1.15;;
50355;SDS011;36264;51.296;-0.602;2023-01-06T14:18:41;2.28;;;1.10;;
50355;SDS011;36264;51.296;-0.602;2023-01-06T14:23:35;5.22;;;1.10;;
50355;SDS011;36264;51.296;-0.602;2023-01-06T14:26:01;3.90;;;1.10;;
50355;SDS011;36264;51.296;-0.602;2023-01-06T14:33:53;6.78;;;1.65;;
50355;SDS011;36264;51.296;-0.602;2023-01-06T14:36:21;6.00;;;2.15;;
50355;SDS011;36264;51.296;-0.602;2023-01-06T14:38:48;3.85;;;1.50;;
50355;SDS011;36264;51.296;-0.602;2023-01-06T14:46:38;3.17;;;1.20;;
50355;SDS011;36264;51.296;-0.602;2023-01-06T14:49:05;5.13;;;1.03;;
50355;SDS011;36264;51.296;-0.602;2023-01-06T14:51:40;2.95;;;1.02;;
50355;SDS011;36264;51.296;-0.602;2023-01-06T14:56:40;3.45;;;1.10;;
50355;SDS011;36264;51.296;-0.602;2023-01-06T14:59:09;1.65;;;1.00;;
50355;SDS011;36264;51.296;-0.602;2023-01-06T15:01:37;0.98;;;0.50;;
50355;SDS011;36264;51.296;-0.602;2023-01-06T15:04:05;2.70;;;0.90;;
50355;SDS011;36264;51.296;-0.602;2023-01-06T15:06:54;1.77;;;1.00;;
50355;SDS011;36264;51.296;-0.602;2023-01-06T15:09:20;1.88;;;0.95;;
50355;SDS011;36264;51.296;-0.602;2023-01-06T15:11:45;1.58;;;0.90;;
50355;SDS011;36264;51.296;-0.602;2023-01-06T15:14:24;1.58;;;0.95;;
50355;SDS011;36264;51.296;-0.602;2023-01-06T15:16:54;0.70;;;0.70;;
50355;SDS011;36264;51.296;-0.602;2023-01-06T15:19:21;1.77;;;1.02;;
50355;SDS011;36264;51.296;-0.602;2023-01-06T15:21:47;2.38;;;1.08;;
50355;SDS011;36264;51.296;-0.602;2023-01-06T15:24:18;1.40;;;0.90;;
50355;SDS011;36264;51.296;-0.602;2023-01-06T15:26:45;1.45;;;0.98;;
50355;SDS011;36264;51.296;-0.602;2023-01-06T15:29:15;2.92;;;1.00;;
50355;SDS011;36264;51.296;-0.602;2023-01-06T15:31:42;2.60;;;1.00;;
50355;SDS011;36264;51.296;-0.602;2023-01-06T15:34:12;2.85;;;1.30;;
50355;SDS011;36264;51.296;-0.602;2023-01-06T15:36:41;1.00;;;0.88;;
50355;SDS011;36264;51.296;-0.602;2023-01-06T15:39:10;1.40;;;0.80;;
50355;SDS011;36264;51.296;-0.602;2023-01-06T15:41:38;3.00;;;0.80;;
50355;SDS011;36264;51.296;-0.602;2023-01-06T15:54:45;2.00;;;0.90;;
50355;SDS011;36264;51.296;-0.602;2023-01-06T15:57:11;2.22;;;1.20;;
50355;SDS011;36264;51.296;-0.602;2023-01-06T15:59:38;1.27;;;0.80;;
50355;SDS011;36264;51.296;-0.602;2023-01-06T16:02:13;2.72;;;1.10;;
50355;SDS011;36264;51.296;-0.602;2023-01-06T16:04:42;1.80;;;1.00;;
50355;SDS011;36264;51.296;-0.602;2023-01-06T16:07:21;1.80;;;1.10;;
50355;SDS011;36264;51.296;-0.602;2023-01-06T16:09:57;1.45;;;0.80;;
50355;SDS011;36264;51.296;-0.602;2023-01-06T16:12:23;1.98;;;1.02;;
50355;SDS011;36264;51.296;-0.602;2023-01-06T16:14:49;1.67;;;1.02;;
50355;SDS011;36264;51.296;-0.602;2023-01-06T16:20:26;2.35;;;1.10;;
50355;SDS011;36264;51.296;-0.602;2023-01-06T16:22:48;2.08;;;1.00;;
50355;SDS011;36264;51.296;-0.602;2023-01-06T16:25:23;2.47;;;1.17;;
50355;SDS011;36264;51.296;-0.602;2023-01-06T16:27:57;2.90;;;1.10;;
50355;SDS011;36264;51.296;-0.602;2023-01-06T16:30:28;1.95;;;1.20;;
50355;SDS011;36264;51.296;-0.602;2023-01-06T16:33:00;1.45;;;1.10;;
50355;SDS011;36264;51.296;-0.602;2023-01-06T16:35:30;2.55;;;1.30;;
50355;SDS011;36264;51.296;-0.602;2023-01-06T16:37:57;2.20;;;1.35;;
50355;SDS011;36264;51.296;-0.602;2023-01-06T16:40:24;2.63;;;1.13;;
50355;SDS011;36264;51.296;-0.602;2023-01-06T16:42:58;1.98;;;1.17;;
50355;SDS011;36264;51.296;-0.602;2023-01-06T16:47:56;5.72;;;3.67;;
50355;SDS011;36264;51.296;-0.602;2023-01-06T16:50:23;10.13;;;6.07;;
50355;SDS011;36264;51.296;-0.602;2023-01-06T16:52:59;20.15;;;10.63;;
50355;SDS011;36264;51.296;-0.602;2023-01-06T16:55:27;29.40;;;14.30;;
50355;SDS011;36264;51.296;-0.602;2023-01-06T16:57:52;9.32;;;4.93;;
50355;SDS011;36264;51.296;-0.602;2023-01-06T17:00:20;7.00;;;3.80;;
50355;SDS011;36264;51.296;-0.602;2023-01-06T17:02:47;4.97;;;2.92;;
50355;SDS011;36264;51.296;-0.602;2023-01-06T17:05:18;5.57;;;3.00;;
50355;SDS011;36264;51.296;-0.602;2023-01-06T17:07:46;10.73;;;6.22;;
50355;SDS011;36264;51.296;-0.602;2023-01-06T17:10:12;6.32;;;3.53;;
50355;SDS011;36264;51.296;-0.602;2023-01-06T17:12:44;5.57;;;3.10;;
50355;SDS011;36264;51.296;-0.602;2023-01-06T17:15:36;6.18;;;4.10;;
50355;SDS011;36264;51.296;-0.602;2023-01-06T17:18:03;7.88;;;5.90;;
50355;SDS011;36264;51.296;-0.602;2023-01-06T17:20:39;4.28;;;2.58;;
50355;SDS011;36264;51.296;-0.602;2023-01-06T17:23:05;3.20;;;2.00;;
50355;SDS011;36264;51.296;-0.602;2023-01-06T17:25:30;3.50;;;2.00;;
50355;SDS011;36264;51.296;-0.602;2023-01-06T17:27:55;3.08;;;1.70;;
50355;SDS011;36264;51.296;-0.602;2023-01-06T17:30:21;2.72;;;1.58;;